Time;durP1;ratioP1;P1;durP2;ratioP2;P2;SDS_P1;SDS_P2;PMS_P1;PMS_P2;Temp;Humidity;BMP_temperature;BMP_pressure;BME280_temperature;BME280_humidity;BME280_pressure;Samples;Min_cycle;Max_cycle;Signal;HPM_P1;HPM_P2
2024/03/30 00:02:14;;;;;;;0.38;0.38;;;;;;;;;;5064466;28;20272;-76
2024/03/30 00:04:40;;;;;;;0.40;0.40;;;;;;;;;;5065421;28;22674;-76
2024/03/30 00:07:05;;;;;;;12.45;1.15;;;;;;;;;;5048406;28;20607;-76
2024/03/30 00:09:31;;;;;;;0.85;0.85;;;;;;;;;;5062416;28;20284;-77
2024/03/30 00:11:56;;;;;;;0.57;0.57;;;;;;;;;;5061803;28;20230;-76
2024/03/30 00:14:22;;;;;;;0.68;0.68;;;;;;;;;;5054287;28;20285;-76
2024/03/30 00:16:47;;;;;;;1.10;1.05;;;;;;;;;;5062727;28;20310;-76
2024/03/30 00:19:15;;;;;;;9.95;2.20;;;;;;;;;;5062243;28;20575;-76
2024/03/30 00:21:40;;;;;;;1.73;1.63;;;;;;;;;;5064652;28;20268;-76
2024/03/30 00:24:06;;;;;;;0.30;0.30;;;;;;;;;;5045683;28;20235;-79
2024/03/30 00:26:31;;;;;;;0.30;0.30;;;;;;;;;;5060252;28;20216;-75
2024/03/30 00:28:57;;;;;;;0.63;0.63;;;;;;;;;;5059313;28;20227;-76
2024/03/30 00:31:25;;;;;;;0.85;0.85;;;;;;;;;;5064620;28;20223;-76
2024/03/30 00:33:50;;;;;;;0.30;0.30;;;;;;;;;;5053067;28;20226;-76
2024/03/30 00:36:16;;;;;;;0.40;0.40;;;;;;;;;;5044153;28;20257;-77
2024/03/30 00:38:45;;;;;;;1.67;1.58;;;;;;;;;;5045776;28;20688;-76
2024/03/30 00:41:11;;;;;;;0.30;0.30;;;;;;;;;;5068744;28;20590;-76
2024/03/30 00:43:37;;;;;;;0.30;0.30;;;;;;;;;;5067747;28;20215;-76
2024/03/30 00:46:02;;;;;;;0.30;0.30;;;;;;;;;;5059097;28;20226;-76
2024/03/30 00:48:31;;;;;;;0.30;0.30;;;;;;;;;;5042216;28;20215;-78
2024/03/30 00:50:57;;;;;;;0.98;0.95;;;;;;;;;;5041335;28;20231;-76
2024/03/30 00:53:22;;;;;;;0.40;0.40;;;;;;;;;;5059342;28;20223;-76
2024/03/30 00:55:56;;;;;;;0.50;0.50;;;;;;;;;;5045080;28;20527;-77
2024/03/30 00:58:21;;;;;;;0.30;0.30;;;;;;;;;;5056923;28;20230;-76
2024/03/30 01:00:47;;;;;;;0.30;0.30;;;;;;;;;;5043455;28;20581;-75
2024/03/30 01:03:13;;;;;;;4.70;0.47;;;;;;;;;;5059265;28;20292;-76
2024/03/30 01:05:38;;;;;;;0.30;0.30;;;;;;;;;;5050353;28;20222;-77
2024/03/30 01:08:04;;;;;;;1.05;1.05;;;;;;;;;;5059613;28;20211;-76
2024/03/30 01:10:30;;;;;;;0.40;0.40;;;;;;;;;;5059205;28;20227;-75
2024/03/30 01:12:55;;;;;;;0.30;0.30;;;;;;;;;;5046820;28;20235;-76
2024/03/30 01:15:22;;;;;;;0.40;0.40;;;;;;;;;;5067821;28;20615;-75
2024/03/30 01:17:47;;;;;;;0.30;0.30;;;;;;;;;;5042872;28;20219;-77
2024/03/30 01:20:13;;;;;;;0.30;0.30;;;;;;;;;;5044507;28;20227;-75
2024/03/30 01:22:39;;;;;;;0.30;0.30;;;;;;;;;;5056832;28;20643;-78
2024/03/30 01:25:06;;;;;;;0.30;0.30;;;;;;;;;;5050789;28;20226;-75
2024/03/30 01:27:32;;;;;;;0.30;0.30;;;;;;;;;;5056371;28;20227;-77
2024/03/30 01:30:11;;;;;;;0.30;0.30;;;;;;;;;;5050954;28;20227;-76
2024/03/30 01:32:37;;;;;;;0.70;0.70;;;;;;;;;;5058798;28;20218;-76
2024/03/30 01:35:04;;;;;;;1.65;1.48;;;;;;;;;;5057568;28;20235;-76
2024/03/30 01:37:29;;;;;;;0.30;0.30;;;;;;;;;;5049767;28;20225;-75
2024/03/30 01:39:56;;;;;;;1.38;1.27;;;;;;;;;;5053563;28;21030;-77
2024/03/30 01:42:31;;;;;;;0.30;0.30;;;;;;;;;;5054670;28;23917;-76
2024/03/30 01:44:57;;;;;;;0.30;0.30;;;;;;;;;;5043120;28;20230;-76
2024/03/30 01:47:26;;;;;;;0.50;0.50;;;;;;;;;;5058869;28;20219;-75
2024/03/30 01:49:56;;;;;;;0.40;0.40;;;;;;;;;;5048895;28;20598;-75
2024/03/30 01:52:24;;;;;;;0.30;0.30;;;;;;;;;;5059185;28;20228;-76
2024/03/30 01:54:50;;;;;;;0.30;0.30;;;;;;;;;;5048942;28;20699;-76
2024/03/30 01:57:16;;;;;;;0.50;0.50;;;;;;;;;;5058409;28;20226;-75
2024/03/30 01:59:42;;;;;;;0.95;0.95;;;;;;;;;;5041386;28;20712;-77
2024/03/30 02:02:09;;;;;;;0.30;0.30;;;;;;;;;;5042799;28;20233;-76
2024/03/30 02:04:36;;;;;;;0.43;0.43;;;;;;;;;;5055991;28;20219;-75
2024/03/30 02:07:03;;;;;;;0.30;0.30;;;;;;;;;;5056510;28;20237;-75
2024/03/30 02:09:29;;;;;;;0.40;0.40;;;;;;;;;;5050701;28;20234;-76
2024/03/30 02:11:54;;;;;;;0.30;0.30;;;;;;;;;;5056164;28;20233;-76
2024/03/30 02:14:20;;;;;;;0.30;0.30;;;;;;;;;;5056240;28;20238;-75
2024/03/30 02:16:48;;;;;;;0.30;0.30;;;;;;;;;;5052666;28;20256;-75
2024/03/30 02:19:17;;;;;;;0.30;0.30;;;;;;;;;;5057558;28;20223;-76
2024/03/30 02:21:43;;;;;;;0.30;0.30;;;;;;;;;;5066200;28;20238;-76
2024/03/30 02:24:08;;;;;;;0.30;0.30;;;;;;;;;;5059285;28;20219;-75
2024/03/30 02:26:33;;;;;;;0.30;0.30;;;;;;;;;;5041594;28;20235;-75
2024/03/30 02:29:02;;;;;;;0.30;0.30;;;;;;;;;;5058858;28;20227;-76
2024/03/30 02:31:27;;;;;;;0.30;0.30;;;;;;;;;;5041304;28;20624;-75
2024/03/30 02:33:53;;;;;;;0.40;0.40;;;;;;;;;;5043324;28;20223;-76
2024/03/30 02:36:19;;;;;;;0.65;0.63;;;;;;;;;;5043089;28;20634;-76
2024/03/30 02:38:45;;;;;;;0.35;0.35;;;;;;;;;;5063340;28;20223;-76
2024/03/30 02:41:11;;;;;;;0.30;0.30;;;;;;;;;;5048627;28;20273;-76
2024/03/30 02:43:36;;;;;;;1.40;1.37;;;;;;;;;;5058024;28;20223;-76
2024/03/30 02:46:02;;;;;;;0.37;0.37;;;;;;;;;;5056824;28;20227;-75
2024/03/30 02:48:27;;;;;;;0.30;0.30;;;;;;;;;;5056485;28;20215;-75
2024/03/30 02:50:53;;;;;;;0.75;0.75;;;;;;;;;;5039515;28;20321;-76
2024/03/30 02:53:18;;;;;;;0.33;0.33;;;;;;;;;;5058513;28;20231;-76
2024/03/30 02:55:44;;;;;;;0.75;0.75;;;;;;;;;;5041500;28;20765;-75
2024/03/30 02:58:09;;;;;;;0.30;0.30;;;;;;;;;;5055911;28;20776;-76
2024/03/30 03:00:35;;;;;;;0.40;0.40;;;;;;;;;;5051417;28;20232;-76
2024/03/30 03:03:00;;;;;;;2.20;2.10;;;;;;;;;;5057346;28;20255;-75
2024/03/30 03:05:26;;;;;;;0.75;0.75;;;;;;;;;;5048868;28;20618;-75
2024/03/30 03:07:51;;;;;;;1.23;1.23;;;;;;;;;;5054727;28;20254;-75
2024/03/30 03:10:16;;;;;;;0.95;0.95;;;;;;;;;;5049796;28;20230;-76
2024/03/30 03:12:42;;;;;;;0.40;0.40;;;;;;;;;;5055204;28;20314;-76
2024/03/30 03:15:08;;;;;;;0.30;0.30;;;;;;;;;;5058144;28;20228;-76
2024/03/30 03:17:37;;;;;;;0.60;0.60;;;;;;;;;;5048004;28;20273;-77
2024/03/30 03:20:05;;;;;;;1.20;1.15;;;;;;;;;;5059570;28;20231;-76
2024/03/30 03:22:35;;;;;;;0.30;0.30;;;;;;;;;;5063436;28;20720;-76
2024/03/30 03:25:02;;;;;;;0.38;0.38;;;;;;;;;;5055742;28;20249;-76
2024/03/30 03:27:28;;;;;;;0.30;0.30;;;;;;;;;;5065780;28;20223;-76
2024/03/30 03:29:54;;;;;;;0.43;0.43;;;;;;;;;;5056150;28;20649;-76
2024/03/30 03:32:19;;;;;;;0.40;0.40;;;;;;;;;;5057517;28;20218;-76
2024/03/30 03:34:45;;;;;;;1.27;0.77;;;;;;;;;;5055569;28;20226;-76
2024/03/30 03:37:10;;;;;;;5.30;1.57;;;;;;;;;;5055868;28;20235;-76
2024/03/30 03:39:36;;;;;;;0.30;0.30;;;;;;;;;;5055371;28;20215;-76
2024/03/30 03:42:01;;;;;;;0.30;0.30;;;;;;;;;;5041861;28;20230;-76
2024/03/30 03:44:27;;;;;;;0.30;0.30;;;;;;;;;;5054365;28;20229;-75
2024/03/30 03:46:53;;;;;;;1.77;1.67;;;;;;;;;;5055139;28;20226;-78
2024/03/30 03:49:18;;;;;;;0.30;0.30;;;;;;;;;;5043617;28;20223;-75
2024/03/30 03:51:44;;;;;;;0.30;0.30;;;;;;;;;;5055465;28;20709;-76
2024/03/30 03:54:10;;;;;;;0.75;0.45;;;;;;;;;;5057304;28;20214;-76
2024/03/30 03:56:35;;;;;;;0.30;0.30;;;;;;;;;;5041576;28;20226;-76
2024/03/30 03:59:01;;;;;;;0.47;0.47;;;;;;;;;;5056662;28;20220;-76
2024/03/30 04:01:26;;;;;;;0.90;0.90;;;;;;;;;;5052951;28;20226;-76
2024/03/30 04:03:52;;;;;;;0.30;0.30;;;;;;;;;;5044344;28;20294;-76
2024/03/30 04:06:17;;;;;;;0.30;0.30;;;;;;;;;;5060891;28;20276;-77
2024/03/30 04:08:46;;;;;;;0.70;0.70;;;;;;;;;;5044529;28;20280;-76
2024/03/30 04:11:11;;;;;;;0.30;0.30;;;;;;;;;;5069788;28;20226;-76
2024/03/30 04:13:37;;;;;;;0.33;0.33;;;;;;;;;;5059017;28;20318;-76
2024/03/30 04:16:05;;;;;;;0.30;0.30;;;;;;;;;;5059430;28;20313;-77
2024/03/30 04:18:32;;;;;;;1.02;0.45;;;;;;;;;;5059688;28;20228;-76
2024/03/30 04:20:59;;;;;;;0.30;0.30;;;;;;;;;;5058490;28;20234;-76
2024/03/30 04:23:31;;;;;;;1.50;1.40;;;;;;;;;;5050701;28;20620;-75
2024/03/30 04:26:04;;;;;;;0.30;0.30;;;;;;;;;;5067452;28;20243;-76
2024/03/30 04:28:30;;;;;;;0.30;0.30;;;;;;;;;;5048025;28;20599;-76
2024/03/30 04:30:57;;;;;;;1.80;1.37;;;;;;;;;;5051585;28;20656;-77
2024/03/30 04:33:23;;;;;;;0.30;0.30;;;;;;;;;;5051429;28;20254;-76
2024/03/30 04:35:56;;;;;;;0.43;0.43;;;;;;;;;;5045707;28;20420;-78
2024/03/30 04:38:22;;;;;;;0.30;0.30;;;;;;;;;;5056475;28;20219;-76
2024/03/30 04:41:01;;;;;;;0.30;0.30;;;;;;;;;;5067048;28;20241;-76
2024/03/30 04:43:28;;;;;;;0.30;0.30;;;;;;;;;;5061292;28;20233;-75
2024/03/30 04:45:54;;;;;;;0.30;0.30;;;;;;;;;;5060499;28;20235;-76
2024/03/30 04:48:20;;;;;;;0.65;0.65;;;;;;;;;;5050619;28;20735;-76
2024/03/30 04:50:46;;;;;;;0.23;0.23;;;;;;;;;;5050518;28;20233;-76
2024/03/30 04:53:19;;;;;;;0.70;0.70;;;;;;;;;;5058780;28;20697;-75
2024/03/30 04:55:56;;;;;;;0.30;0.30;;;;;;;;;;5060549;28;20321;-75
2024/03/30 04:58:23;;;;;;;0.30;0.30;;;;;;;;;;5049823;28;20703;-76
2024/03/30 05:00:51;;;;;;;0.30;0.30;;;;;;;;;;5059967;28;20231;-76
2024/03/30 05:03:16;;;;;;;0.30;0.30;;;;;;;;;;5059923;28;20231;-78
2024/03/30 05:05:45;;;;;;;0.40;0.40;;;;;;;;;;5065087;28;20233;-76
2024/03/30 05:08:11;;;;;;;0.30;0.30;;;;;;;;;;5054205;28;20231;-75
2024/03/30 05:10:38;;;;;;;0.30;0.30;;;;;;;;;;5056583;28;20269;-75
2024/03/30 05:13:06;;;;;;;0.30;0.30;;;;;;;;;;5057854;28;20778;-75
2024/03/30 05:15:36;;;;;;;0.30;0.30;;;;;;;;;;5059897;28;20790;-75
2024/03/30 05:18:01;;;;;;;0.30;0.30;;;;;;;;;;5060396;28;20735;-76
2024/03/30 05:23:11;;;;;;;0.60;0.60;;;;;;;;;;5060074;28;20228;-76
2024/03/30 05:25:36;;;;;;;0.30;0.30;;;;;;;;;;5058614;28;20610;-76
2024/03/30 05:28:02;;;;;;;0.40;0.40;;;;;;;;;;5044312;28;20223;-75
2024/03/30 05:30:27;;;;;;;0.20;0.20;;;;;;;;;;5057102;28;20231;-75
2024/03/30 05:32:53;;;;;;;0.30;0.30;;;;;;;;;;5058361;28;20250;-75
2024/03/30 05:35:19;;;;;;;1.17;1.17;;;;;;;;;;5050641;28;20272;-75
2024/03/30 05:37:45;;;;;;;0.30;0.30;;;;;;;;;;5055032;28;20289;-76
2024/03/30 05:40:11;;;;;;;0.30;0.30;;;;;;;;;;5056363;28;20704;-75
2024/03/30 05:42:36;;;;;;;0.30;0.30;;;;;;;;;;5042499;28;20276;-75
2024/03/30 05:45:02;;;;;;;1.23;1.17;;;;;;;;;;5044609;28;20618;-75
2024/03/30 05:47:28;;;;;;;0.30;0.30;;;;;;;;;;5049685;28;20272;-75
2024/03/30 05:49:55;;;;;;;0.30;0.30;;;;;;;;;;5057129;28;20223;-75
2024/03/30 05:52:21;;;;;;;0.30;0.30;;;;;;;;;;5058511;28;20231;-75
2024/03/30 05:54:46;;;;;;;0.20;0.20;;;;;;;;;;5055731;28;20298;-75
2024/03/30 05:57:12;;;;;;;0.30;0.30;;;;;;;;;;5057691;28;20227;-75
2024/03/30 05:59:40;;;;;;;0.30;0.30;;;;;;;;;;5056775;28;20211;-75
2024/03/30 06:02:06;;;;;;;0.30;0.30;;;;;;;;;;5057717;28;20657;-76
2024/03/30 06:04:31;;;;;;;0.20;0.20;;;;;;;;;;5057708;28;20265;-76
2024/03/30 06:06:57;;;;;;;0.30;0.30;;;;;;;;;;5056516;28;20735;-75
2024/03/30 06:09:23;;;;;;;0.30;0.30;;;;;;;;;;5042774;28;20234;-75
2024/03/30 06:11:49;;;;;;;6.23;3.00;;;;;;;;;;5057336;28;20285;-75
2024/03/30 06:14:15;;;;;;;0.60;0.60;;;;;;;;;;5066047;28;20969;-76
2024/03/30 06:16:42;;;;;;;0.30;0.30;;;;;;;;;;5057242;28;20394;-75
2024/03/30 06:19:08;;;;;;;0.30;0.30;;;;;;;;;;5050484;28;20226;-76
2024/03/30 06:21:34;;;;;;;1.43;1.33;;;;;;;;;;5041917;28;20293;-75
2024/03/30 06:24:00;;;;;;;0.30;0.30;;;;;;;;;;5048435;28;20695;-75
2024/03/30 06:26:26;;;;;;;0.30;0.30;;;;;;;;;;5041927;28;20912;-75
2024/03/30 06:28:51;;;;;;;0.20;0.20;;;;;;;;;;5058374;28;20749;-74
2024/03/30 06:31:18;;;;;;;0.30;0.30;;;;;;;;;;5057417;28;20234;-75
2024/03/30 06:33:45;;;;;;;1.20;1.10;;;;;;;;;;5043071;28;20222;-75
2024/03/30 06:36:10;;;;;;;0.30;0.30;;;;;;;;;;5049054;28;20225;-75
2024/03/30 06:38:36;;;;;;;0.70;0.70;;;;;;;;;;5057238;28;20238;-75
2024/03/30 06:43:46;;;;;;;0.30;0.30;;;;;;;;;;5056453;28;20223;-75
2024/03/30 06:46:12;;;;;;;0.20;0.20;;;;;;;;;;5058798;28;20241;-75
2024/03/30 06:48:38;;;;;;;0.30;0.30;;;;;;;;;;5059832;28;20223;-75
2024/03/30 06:51:04;;;;;;;0.30;0.30;;;;;;;;;;5059266;28;20258;-75
2024/03/30 06:53:30;;;;;;;0.37;0.37;;;;;;;;;;5058261;28;20215;-78
2024/03/30 06:55:56;;;;;;;0.30;0.30;;;;;;;;;;5049119;28;20298;-74
2024/03/30 06:58:22;;;;;;;0.30;0.30;;;;;;;;;;5057908;28;20648;-76
2024/03/30 07:00:48;;;;;;;0.97;0.97;;;;;;;;;;5042341;28;20234;-76
2024/03/30 07:03:14;;;;;;;0.30;0.30;;;;;;;;;;5049064;28;20226;-75
2024/03/30 07:05:40;;;;;;;0.30;0.30;;;;;;;;;;5048525;28;20664;-76
2024/03/30 07:08:05;;;;;;;0.30;0.30;;;;;;;;;;5056755;28;20271;-77
2024/03/30 07:10:31;;;;;;;0.30;0.30;;;;;;;;;;5065100;28;20302;-75
2024/03/30 07:12:57;;;;;;;0.30;0.30;;;;;;;;;;5048831;28;20234;-76
2024/03/30 07:15:22;;;;;;;0.30;0.30;;;;;;;;;;5066278;28;20312;-77
2024/03/30 07:17:48;;;;;;;0.40;0.40;;;;;;;;;;5044554;28;20230;-77
2024/03/30 07:20:14;;;;;;;0.30;0.30;;;;;;;;;;5043674;28;20230;-76
2024/03/30 07:22:40;;;;;;;0.30;0.30;;;;;;;;;;5061445;28;20293;-77
2024/03/30 07:25:07;;;;;;;0.20;0.20;;;;;;;;;;5070850;28;20235;-77
2024/03/30 07:27:34;;;;;;;0.30;0.30;;;;;;;;;;5069860;28;20252;-76
2024/03/30 07:29:59;;;;;;;0.40;0.40;;;;;;;;;;5046211;28;20227;-76
2024/03/30 07:32:26;;;;;;;0.30;0.30;;;;;;;;;;5044549;28;20225;-79
2024/03/30 07:34:52;;;;;;;0.30;0.30;;;;;;;;;;5046856;28;20214;-76
2024/03/30 07:37:17;;;;;;;0.50;0.50;;;;;;;;;;5049586;28;20211;-76
2024/03/30 07:39:44;;;;;;;0.30;0.30;;;;;;;;;;5065910;28;20265;-77
2024/03/30 07:42:10;;;;;;;0.57;0.57;;;;;;;;;;5061403;28;20230;-76
2024/03/30 07:44:36;;;;;;;1.30;1.00;;;;;;;;;;5043914;28;20219;-77
2024/03/30 07:47:05;;;;;;;2.53;1.73;;;;;;;;;;5060756;28;20230;-76
2024/03/30 07:49:32;;;;;;;0.50;0.50;;;;;;;;;;5044573;28;20699;-77
2024/03/30 07:51:57;;;;;;;0.67;0.67;;;;;;;;;;5058440;28;20231;-78
2024/03/30 07:54:23;;;;;;;0.30;0.30;;;;;;;;;;5061068;28;20597;-76
2024/03/30 07:57:01;;;;;;;0.50;0.50;;;;;;;;;;5044578;28;20234;-76
2024/03/30 07:59:27;;;;;;;1.35;0.57;;;;;;;;;;5062867;28;20597;-76
2024/03/30 08:01:53;;;;;;;8.13;1.15;;;;;;;;;;5044267;28;20220;-80
2024/03/30 08:04:19;;;;;;;0.30;0.30;;;;;;;;;;5060178;28;20352;-78
2024/03/30 08:06:47;;;;;;;5.45;1.08;;;;;;;;;;5045804;28;20226;-78
2024/03/30 08:09:13;;;;;;;0.30;0.30;;;;;;;;;;5060104;28;20231;-78
2024/03/30 08:11:39;;;;;;;4.95;1.13;;;;;;;;;;5059400;28;20294;-78
2024/03/30 08:14:05;;;;;;;1.40;1.05;;;;;;;;;;5062954;28;20251;-78
2024/03/30 08:16:30;;;;;;;0.30;0.30;;;;;;;;;;5043643;28;20215;-78
2024/03/30 08:18:57;;;;;;;0.45;0.45;;;;;;;;;;5046125;28;20233;-81
2024/03/30 08:21:23;;;;;;;0.63;0.63;;;;;;;;;;5040842;28;20610;-80
2024/03/30 08:23:49;;;;;;;0.50;0.50;;;;;;;;;;5078350;28;20228;-79
2024/03/30 08:26:16;;;;;;;2.20;1.60;;;;;;;;;;5060694;28;20232;-79
2024/03/30 08:28:41;;;;;;;7.22;2.05;;;;;;;;;;5060317;28;20231;-77
2024/03/30 08:31:07;;;;;;;2.58;2.38;;;;;;;;;;5050960;28;20304;-79
2024/03/30 08:33:32;;;;;;;0.60;0.60;;;;;;;;;;5062535;28;20712;-79
2024/03/30 08:35:59;;;;;;;16.30;0.95;;;;;;;;;;5063028;28;20417;-77
2024/03/30 08:38:24;;;;;;;1.58;0.77;;;;;;;;;;5054523;28;20211;-77
2024/03/30 08:40:50;;;;;;;0.50;0.50;;;;;;;;;;5061907;28;20238;-76
2024/03/30 08:43:16;;;;;;;0.40;0.40;;;;;;;;;;5057261;28;20853;-80
2024/03/30 08:45:42;;;;;;;1.15;0.95;;;;;;;;;;5053581;28;20223;-79
2024/03/30 08:48:12;;;;;;;0.30;0.30;;;;;;;;;;5090361;28;20215;-78
2024/03/30 08:50:38;;;;;;;0.85;0.85;;;;;;;;;;5068145;28;20597;-77
2024/03/30 08:53:04;;;;;;;0.68;0.65;;;;;;;;;;5048926;28;20230;-79
2024/03/30 08:55:29;;;;;;;0.68;0.68;;;;;;;;;;5059167;28;20220;-81
2024/03/30 08:57:55;;;;;;;0.40;0.40;;;;;;;;;;5060632;28;20771;-79
2024/03/30 09:00:22;;;;;;;1.02;0.93;;;;;;;;;;5067336;28;20701;-79
2024/03/30 09:02:47;;;;;;;4.57;0.88;;;;;;;;;;5059336;28;20234;-79
2024/03/30 09:05:13;;;;;;;0.50;0.50;;;;;;;;;;5061480;28;20317;-80
2024/03/30 09:07:38;;;;;;;1.48;1.38;;;;;;;;;;5064035;28;20286;-81
2024/03/30 09:10:04;;;;;;;2.28;1.40;;;;;;;;;;5046054;28;20265;-76
2024/03/30 09:12:30;;;;;;;0.73;0.73;;;;;;;;;;5058083;28;20771;-74
2024/03/30 09:14:55;;;;;;;0.60;0.60;;;;;;;;;;5060418;28;20223;-74
2024/03/30 09:17:21;;;;;;;1.88;0.60;;;;;;;;;;5043739;28;20225;-74
2024/03/30 09:19:46;;;;;;;0.30;0.30;;;;;;;;;;5060045;28;20286;-76
2024/03/30 09:22:12;;;;;;;0.85;0.85;;;;;;;;;;5043277;28;20223;-75
2024/03/30 09:24:38;;;;;;;1.15;0.77;;;;;;;;;;5060877;28;20264;-75
2024/03/30 09:27:04;;;;;;;2.20;1.75;;;;;;;;;;5043979;28;20220;-75
2024/03/30 09:29:29;;;;;;;1.15;1.15;;;;;;;;;;5050382;28;20223;-76
2024/03/30 09:31:55;;;;;;;0.68;0.68;;;;;;;;;;5042518;28;20227;-74
2024/03/30 09:34:20;;;;;;;1.40;1.33;;;;;;;;;;5058533;28;20223;-77
2024/03/30 09:36:46;;;;;;;0.50;0.50;;;;;;;;;;5043755;28;20218;-76
2024/03/30 09:39:12;;;;;;;0.40;0.40;;;;;;;;;;5065890;28;20646;-74
2024/03/30 09:41:47;;;;;;;0.50;0.50;;;;;;;;;;5044343;28;20243;-75
2024/03/30 09:44:12;;;;;;;0.40;0.40;;;;;;;;;;5058058;28;20653;-75
2024/03/30 09:46:41;;;;;;;0.40;0.40;;;;;;;;;;5040980;28;20222;-75
2024/03/30 09:49:07;;;;;;;0.32;0.32;;;;;;;;;;5056843;28;20215;-75
2024/03/30 09:51:34;;;;;;;1.27;1.25;;;;;;;;;;5056254;28;20746;-75
2024/03/30 09:54:01;;;;;;;0.40;0.40;;;;;;;;;;5066353;28;20222;-76
2024/03/30 09:56:29;;;;;;;1.20;0.88;;;;;;;;;;5040866;28;20230;-76
2024/03/30 09:58:58;;;;;;;0.95;0.80;;;;;;;;;;5060427;28;20222;-76
2024/03/30 10:01:24;;;;;;;1.40;1.05;;;;;;;;;;5060344;28;20234;-76
2024/03/30 10:03:49;;;;;;;0.30;0.30;;;;;;;;;;5056868;28;20219;-75
2024/03/30 10:06:27;;;;;;;0.32;0.32;;;;;;;;;;5064070;28;20228;-76
2024/03/30 10:08:58;;;;;;;0.50;0.50;;;;;;;;;;5057993;28;20284;-75
2024/03/30 10:11:30;;;;;;;1.25;0.95;;;;;;;;;;5059455;28;20277;-77
2024/03/30 10:14:33;;;;;;;0.57;0.57;;;;;;;;;;5059096;28;20227;-76
2024/03/30 10:17:00;;;;;;;1.05;0.70;;;;;;;;;;5059256;28;20223;-78
2024/03/30 10:19:26;;;;;;;0.77;0.77;;;;;;;;;;5047644;28;20227;-76
2024/03/30 10:21:58;;;;;;;0.73;0.73;;;;;;;;;;5064604;28;20227;-76
2024/03/30 10:24:24;;;;;;;1.65;1.55;;;;;;;;;;5065541;28;20578;-75
2024/03/30 10:26:49;;;;;;;0.60;0.60;;;;;;;;;;5043823;28;20234;-77
2024/03/30 10:29:15;;;;;;;0.50;0.50;;;;;;;;;;5057059;28;20258;-75
2024/03/30 10:31:41;;;;;;;0.60;0.60;;;;;;;;;;5055371;28;20231;-76
2024/03/30 10:34:07;;;;;;;5.85;1.67;;;;;;;;;;5058858;28;20772;-77
2024/03/30 10:36:33;;;;;;;7.88;1.42;;;;;;;;;;5056023;28;20227;-77
2024/03/30 10:38:59;;;;;;;1.88;1.10;;;;;;;;;;5063411;28;20499;-76
2024/03/30 10:41:27;;;;;;;0.30;0.30;;;;;;;;;;5043206;28;20230;-76
2024/03/30 10:43:53;;;;;;;0.32;0.32;;;;;;;;;;5058867;28;20265;-77
2024/03/30 10:46:18;;;;;;;0.82;0.82;;;;;;;;;;5043596;28;20297;-76
2024/03/30 10:48:44;;;;;;;2.25;1.35;;;;;;;;;;5039257;28;20218;-75
2024/03/30 10:51:10;;;;;;;1.10;1.05;;;;;;;;;;5053540;28;20239;-76
2024/03/30 10:53:36;;;;;;;0.60;0.60;;;;;;;;;;5054949;28;20223;-75
2024/03/30 10:56:02;;;;;;;3.92;1.05;;;;;;;;;;5057070;28;20230;-75
2024/03/30 10:58:29;;;;;;;0.30;0.30;;;;;;;;;;5054772;28;20599;-75
2024/03/30 11:00:56;;;;;;;0.82;0.82;;;;;;;;;;5057593;28;20231;-75
2024/03/30 11:03:24;;;;;;;0.80;0.80;;;;;;;;;;5057311;28;20223;-77
2024/03/30 11:05:50;;;;;;;1.38;0.85;;;;;;;;;;5057793;28;20775;-75
2024/03/30 11:08:17;;;;;;;0.50;0.50;;;;;;;;;;5062027;28;20222;-75
2024/03/30 11:10:42;;;;;;;1.35;1.25;;;;;;;;;;5039321;28;20234;-76
2024/03/30 11:13:08;;;;;;;1.75;1.65;;;;;;;;;;5040210;28;20258;-75
2024/03/30 11:15:39;;;;;;;1.25;1.15;;;;;;;;;;5039972;28;20222;-76
2024/03/30 11:18:17;;;;;;;16.52;3.50;;;;;;;;;;5055262;28;20226;-77
2024/03/30 11:20:57;;;;;;;2.03;1.33;;;;;;;;;;5056576;28;20226;-75
2024/03/30 11:23:34;;;;;;;1.52;1.05;;;;;;;;;;5061317;28;20627;-76
2024/03/30 11:26:09;;;;;;;2.78;2.33;;;;;;;;;;5057780;28;20235;-75
2024/03/30 11:28:47;;;;;;;1.00;0.82;;;;;;;;;;5058272;28;20214;-75
2024/03/30 11:31:21;;;;;;;0.52;0.52;;;;;;;;;;5044709;28;20231;-75
2024/03/30 11:33:58;;;;;;;7.63;2.75;;;;;;;;;;5050730;28;20228;-75
2024/03/30 11:36:45;;;;;;;1.88;1.77;;;;;;;;;;5054989;28;20219;-75
2024/03/30 11:39:22;;;;;;;1.25;1.15;;;;;;;;;;5046529;28;20245;-76
2024/03/30 11:41:51;;;;;;;4.03;2.58;;;;;;;;;;5046278;28;20219;-75
2024/03/30 11:44:23;;;;;;;1.13;1.05;;;;;;;;;;5048601;28;20226;-75
2024/03/30 11:46:50;;;;;;;1.27;1.00;;;;;;;;;;5040933;28;20266;-76
2024/03/30 11:49:18;;;;;;;1.67;1.33;;;;;;;;;;5064296;28;20231;-74
2024/03/30 11:51:43;;;;;;;1.42;1.27;;;;;;;;;;5056860;28;20226;-73
2024/03/30 11:54:23;;;;;;;0.95;0.95;;;;;;;;;;5056289;28;20227;-73
2024/03/30 11:57:10;;;;;;;0.85;0.85;;;;;;;;;;5041065;28;20222;-73
2024/03/30 11:59:40;;;;;;;4.03;2.15;;;;;;;;;;5057561;28;20234;-73
2024/03/30 12:02:07;;;;;;;2.15;1.88;;;;;;;;;;5046501;28;20798;-74
2024/03/30 12:04:38;;;;;;;1.23;1.05;;;;;;;;;;5063728;28;20230;-75
2024/03/30 12:07:07;;;;;;;5.25;1.83;;;;;;;;;;5059559;28;20597;-74
2024/03/30 12:09:34;;;;;;;12.52;3.10;;;;;;;;;;5054971;28;20285;-74
2024/03/30 12:12:20;;;;;;;5.45;3.58;;;;;;;;;;5063343;28;20230;-74
2024/03/30 12:14:47;;;;;;;6.57;4.05;;;;;;;;;;5058536;28;20227;-74
2024/03/30 12:17:13;;;;;;;15.65;5.97;;;;;;;;;;5056884;28;20223;-75
2024/03/30 12:19:39;;;;;;;3.00;2.78;;;;;;;;;;5055764;28;20754;-74
2024/03/30 12:22:05;;;;;;;1.25;1.15;;;;;;;;;;5054326;28;20226;-74
2024/03/30 12:24:34;;;;;;;1.70;1.40;;;;;;;;;;5056098;28;20313;-73
2024/03/30 12:26:59;;;;;;;4.50;3.25;;;;;;;;;;5057510;28;20240;-74
2024/03/30 12:29:25;;;;;;;2.05;1.83;;;;;;;;;;5054836;28;20258;-74
2024/03/30 12:31:50;;;;;;;11.60;2.40;;;;;;;;;;5057974;28;20606;-74
2024/03/30 12:34:16;;;;;;;3.15;2.95;;;;;;;;;;5058064;28;20231;-74
2024/03/30 12:36:45;;;;;;;2.45;2.10;;;;;;;;;;5057499;28;20223;-73
2024/03/30 12:39:11;;;;;;;3.03;1.80;;;;;;;;;;5059972;28;20231;-74
2024/03/30 12:41:37;;;;;;;8.13;1.88;;;;;;;;;;5058206;28;20231;-74
2024/03/30 12:44:03;;;;;;;1.20;1.20;;;;;;;;;;5068559;28;20231;-74
2024/03/30 12:46:31;;;;;;;1.60;1.35;;;;;;;;;;5060186;28;20365;-74
2024/03/30 12:49:03;;;;;;;5.25;2.65;;;;;;;;;;5044626;28;20234;-73
2024/03/30 12:51:30;;;;;;;2.03;1.52;;;;;;;;;;5042282;28;20227;-74
2024/03/30 12:53:55;;;;;;;3.08;2.63;;;;;;;;;;5060142;28;20234;-73
2024/03/30 12:56:23;;;;;;;0.50;0.50;;;;;;;;;;5060053;28;20207;-73
2024/03/30 12:58:49;;;;;;;1.48;1.05;;;;;;;;;;5057558;28;20626;-73
2024/03/30 13:01:16;;;;;;;1.40;0.90;;;;;;;;;;5068149;28;20258;-73
2024/03/30 13:03:42;;;;;;;0.75;0.75;;;;;;;;;;5056825;28;20219;-73
2024/03/30 13:06:14;;;;;;;1.63;1.52;;;;;;;;;;5067099;28;20748;-73
2024/03/30 13:08:44;;;;;;;1.63;1.50;;;;;;;;;;5063354;28;20598;-74
2024/03/30 13:11:12;;;;;;;1.35;1.25;;;;;;;;;;5043711;28;20235;-74
2024/03/30 13:13:42;;;;;;;0.70;0.70;;;;;;;;;;5044869;28;20261;-73
2024/03/30 13:16:08;;;;;;;0.77;0.77;;;;;;;;;;5058659;28;20246;-73
2024/03/30 13:18:36;;;;;;;0.68;0.68;;;;;;;;;;5055231;28;20226;-73
2024/03/30 13:21:08;;;;;;;4.68;1.38;;;;;;;;;;5042607;28;20723;-74
2024/03/30 13:23:35;;;;;;;0.52;0.50;;;;;;;;;;5066025;28;20222;-74
2024/03/30 13:26:01;;;;;;;0.73;0.63;;;;;;;;;;5058460;28;20238;-74
2024/03/30 13:28:28;;;;;;;5.00;1.92;;;;;;;;;;5049764;28;20215;-74
2024/03/30 13:30:54;;;;;;;0.50;0.50;;;;;;;;;;5050306;28;20300;-73
2024/03/30 13:33:21;;;;;;;0.50;0.50;;;;;;;;;;5058250;28;20776;-75
2024/03/30 13:35:47;;;;;;;0.68;0.68;;;;;;;;;;5042167;28;20211;-73
2024/03/30 13:38:13;;;;;;;0.32;0.32;;;;;;;;;;5042798;28;20233;-74
2024/03/30 13:40:39;;;;;;;0.90;0.68;;;;;;;;;;5059612;28;20229;-73
2024/03/30 13:43:04;;;;;;;2.03;1.25;;;;;;;;;;5057752;28;20604;-74
2024/03/30 13:45:55;;;;;;;5.03;1.98;;;;;;;;;;5060807;28;20277;-73
2024/03/30 13:48:20;;;;;;;2.28;1.20;;;;;;;;;;5049763;28;20242;-74
2024/03/30 13:50:46;;;;;;;3.95;1.30;;;;;;;;;;5057813;28;20254;-74
2024/03/30 13:53:11;;;;;;;1.38;1.27;;;;;;;;;;5041448;28;20720;-74
2024/03/30 13:55:37;;;;;;;1.27;1.27;;;;;;;;;;5042567;28;20788;-74
2024/03/30 13:58:03;;;;;;;3.13;2.83;;;;;;;;;;5059333;28;20604;-73
2024/03/30 14:00:28;;;;;;;3.28;2.97;;;;;;;;;;5056308;28;20310;-73
2024/03/30 14:02:54;;;;;;;3.50;3.17;;;;;;;;;;5042034;28;20280;-74
2024/03/30 14:05:23;;;;;;;0.55;0.55;;;;;;;;;;5042179;28;20747;-74
2024/03/30 14:07:49;;;;;;;0.55;0.55;;;;;;;;;;5050039;28;20215;-73
2024/03/30 14:10:15;;;;;;;0.88;0.88;;;;;;;;;;5041053;28;20224;-74
2024/03/30 14:12:40;;;;;;;1.17;1.08;;;;;;;;;;5056494;28;20242;-74
2024/03/30 14:15:06;;;;;;;9.02;3.75;;;;;;;;;;5041539;28;20318;-76
2024/03/30 14:17:33;;;;;;;0.90;0.82;;;;;;;;;;5057031;28;20723;-73
2024/03/30 14:19:59;;;;;;;6.43;1.50;;;;;;;;;;5058502;28;20246;-76
2024/03/30 14:22:26;;;;;;;3.85;2.33;;;;;;;;;;5041792;28;20630;-74
2024/03/30 14:24:52;;;;;;;1.50;1.42;;;;;;;;;;5058286;28;20273;-73
2024/03/30 14:27:18;;;;;;;1.27;0.80;;;;;;;;;;5041387;28;20231;-73
2024/03/30 14:29:45;;;;;;;9.60;3.00;;;;;;;;;;5041621;28;20219;-75
2024/03/30 14:32:12;;;;;;;0.77;0.77;;;;;;;;;;5057132;28;20231;-74
2024/03/30 14:34:38;;;;;;;6.28;2.13;;;;;;;;;;5053491;28;20268;-73
2024/03/30 14:37:04;;;;;;;1.15;1.05;;;;;;;;;;5056937;28;20235;-73
2024/03/30 14:39:29;;;;;;;4.80;2.80;;;;;;;;;;5048908;28;20229;-74
2024/03/30 14:41:55;;;;;;;1.52;1.42;;;;;;;;;;5041929;28;20267;-74
2024/03/30 14:44:21;;;;;;;1.40;1.30;;;;;;;;;;5039993;28;20220;-75
2024/03/30 14:46:47;;;;;;;12.07;0.60;;;;;;;;;;5040578;28;20231;-74
2024/03/30 14:49:12;;;;;;;2.47;2.28;;;;;;;;;;5065278;28;20218;-73